CYAH

La Grande Iv Airport

La Grande, Canada

CYAH 191400Z AUTO 23012G17KT 9SM OVC055 12/06 A3003 RMK SLP182

Observed Flight Rules
Sep-19 @ 14:00 UTC (an hour ago)
 
Visual Flight Rules
Wind Visibility Clouds
230° at 12 knots
 Gusting to 17 knots
9 miles
  • Overcast at 5,500' AGL
Temperatures Readings
Current 12°C / 54°F
Dewpoint 6°C / 43°F
Humidity 67%
Altimeter 30.03" Hg
Pressure 1018.2 hPa
Elevation 306
Observed Flight Rules
Sep-19 @ 14:00 UTC
(an hour ago)
 
VFR
Wind Visibility
230° at 12 knots
 Gusting to 17 knots
9 miles
Clouds
  • Overcast at 5,500' AGL
Temperature Dewpoint
12°C / 54°F 6°C / 43°F
Humidity Altimeter Pressure
67% 30.03" Hg 1018.2 hPa